Clarkton, Missouri
Current Conditions -  °F | °C
As of 5:53 PM on Sunday 23 Nov 2014 (Local Time) from KPOF Reporting Station
Haze Haze  
Wind Chill: 55°   Ceiling: 400
Heat Index: 55°   Visibility: 4mi
Dew Point: 54°   Wind: 3mph
Humidity: 96%   Direction: 190°S
Pressure: 29.32"   Gusts: NA
Location:  36.45°N, 89.97°W
Report Text: KPOF 232353Z AUTO 19003KT 4SM BR OVC004 13/12 A2932 RMK AO2 RAE25 SLP928 P0002 60040 T01280122 10139 20128 55007
Loading
Personal Weather Stations






























Interactive Weather Map New forecast layout! Learn more

10-Day Weather Forecast

Advertisements
Track Severe Weather on mobile